createdAt,value
2017-11-25T00:02:00.443Z,81.40
2017-11-25T00:04:26.988Z,81.10
2017-11-25T00:06:53.588Z,81.40
2017-11-25T00:09:20.515Z,81.70
2017-11-25T00:11:47.091Z,81.70
2017-11-25T00:14:14.091Z,81.60
2017-11-25T00:16:40.643Z,81.60
2017-11-25T00:19:07.191Z,81.60
2017-11-25T00:21:33.783Z,81.60
2017-11-25T00:24:00.717Z,81.40
2017-11-25T00:26:27.327Z,81.40
2017-11-25T00:28:53.992Z,81.40
2017-11-25T00:31:20.636Z,81.70
2017-11-25T00:33:47.191Z,81.80
2017-11-25T00:36:13.801Z,81.90
2017-11-25T00:38:40.367Z,81.90
2017-11-25T00:41:06.911Z,81.80
2017-11-25T00:43:33.507Z,81.80
2017-11-25T00:46:00.055Z,82.00
2017-11-25T00:48:26.609Z,81.90
2017-11-25T00:50:53.303Z,81.80
2017-11-25T00:53:19.848Z,82.00
2017-11-25T00:55:46.394Z,81.80
2017-11-25T00:58:13.002Z,81.80
2017-11-25T01:00:39.546Z,81.70
2017-11-25T01:03:06.075Z,81.70
2017-11-25T01:05:32.706Z,82.10
2017-11-25T01:07:59.272Z,82.50
2017-11-25T01:10:25.831Z,82.50
2017-11-25T01:12:52.540Z,82.50
2017-11-25T01:15:19.094Z,82.40
2017-11-25T01:17:45.632Z,82.60
2017-11-25T01:20:12.246Z,82.00
2017-11-25T01:22:39.187Z,82.10
2017-11-25T01:25:05.755Z,82.10
2017-11-25T01:27:32.743Z,82.20
2017-11-25T01:29:59.288Z,82.20
2017-11-25T01:32:25.952Z,82.40
2017-11-25T01:34:52.675Z,82.40
2017-11-25T01:37:19.242Z,82.20
2017-11-25T01:39:45.813Z,82.30
2017-11-25T01:42:12.427Z,82.30
2017-11-25T01:44:39.015Z,82.30
2017-11-25T01:47:05.592Z,82.30
2017-11-25T01:49:32.570Z,82.20
2017-11-25T01:51:59.118Z,82.20
2017-11-25T01:54:25.706Z,82.20
2017-11-25T01:56:52.387Z,81.80
2017-11-25T01:59:19.408Z,82.90
2017-11-25T02:01:45.980Z,82.90
2017-11-25T02:04:12.587Z,83.00
2017-11-25T02:06:39.174Z,83.10
2017-11-25T02:09:05.788Z,83.30
2017-11-25T02:11:32.608Z,83.50
2017-11-25T02:13:59.553Z,84.10
2017-11-25T02:16:26.539Z,84.40
2017-11-25T02:18:53.156Z,84.40
2017-11-25T02:21:20.159Z,85.10
2017-11-25T02:23:46.792Z,85.10
2017-11-25T02:26:13.480Z,85.20
2017-11-25T02:28:40.091Z,85.20
2017-11-25T02:31:06.756Z,85.40
2017-11-25T02:33:33.466Z,85.20
2017-11-25T02:36:00.571Z,85.20
2017-11-25T02:38:27.147Z,85.20
2017-11-25T02:40:53.937Z,85.30
2017-11-25T02:43:20.566Z,85.40
2017-11-25T02:45:47.194Z,85.10
2017-11-25T02:48:13.888Z,85.00
2017-11-25T02:50:40.518Z,85.20
2017-11-25T02:53:07.151Z,85.10
2017-11-25T02:55:33.847Z,85.00
2017-11-25T02:58:00.472Z,84.50
2017-11-25T03:00:27.449Z,84.70
2017-11-25T03:02:54.084Z,84.70
2017-11-25T03:05:21.076Z,84.10
2017-11-25T03:07:47.664Z,84.10
2017-11-25T03:10:14.409Z,84.00
2017-11-25T03:12:41.031Z,83.80
2017-11-25T03:15:07.627Z,84.00
2017-11-25T03:17:34.491Z,85.10
2017-11-25T03:20:01.431Z,85.70
2017-11-25T03:22:28.020Z,85.70
2017-11-25T03:24:54.820Z,85.50
2017-11-25T03:27:21.464Z,85.30
2017-11-25T03:29:48.020Z,85.00
2017-11-25T03:32:14.632Z,84.70
2017-11-25T03:34:41.208Z,84.20
2017-11-25T03:37:07.756Z,84.10
2017-11-25T03:39:34.455Z,84.60
2017-11-25T03:42:01.059Z,84.60
2017-11-25T03:44:27.629Z,84.30
2017-11-25T03:46:54.639Z,85.30
2017-11-25T03:49:21.178Z,85.30
2017-11-25T03:51:47.762Z,85.40
2017-11-25T03:54:14.462Z,85.20
2017-11-25T03:56:41.115Z,84.90
2017-11-25T03:59:07.759Z,84.70
2017-11-25T04:01:34.388Z,84.50
2017-11-25T04:04:01.327Z,85.20
2017-11-25T04:06:27.871Z,85.20
2017-11-25T04:08:54.495Z,85.40
2017-11-25T04:11:21.055Z,85.60
2017-11-25T04:13:47.603Z,86.10
2017-11-25T04:16:14.204Z,86.00
2017-11-25T04:18:40.751Z,86.20
2017-11-25T04:21:07.311Z,85.90
2017-11-25T04:23:34.050Z,86.30
2017-11-25T04:26:00.643Z,86.30
2017-11-25T04:28:27.221Z,86.50
2017-11-25T04:30:54.218Z,86.50
2017-11-25T04:33:20.754Z,86.50
2017-11-25T04:35:47.335Z,86.40
2017-11-25T04:38:14.040Z,86.20
2017-11-25T04:40:40.607Z,85.90
2017-11-25T04:43:07.152Z,85.70
2017-11-25T04:45:33.751Z,85.80
2017-11-25T04:48:00.308Z,85.40
2017-11-25T04:50:27.276Z,84.70
2017-11-25T04:52:54.291Z,84.70
2017-11-25T04:55:20.894Z,84.70
2017-11-25T04:57:47.513Z,84.80
2017-11-25T05:00:14.255Z,84.50
2017-11-25T05:02:40.911Z,83.90
2017-11-25T05:05:07.532Z,83.40
2017-11-25T05:07:34.202Z,83.10
2017-11-25T05:10:00.767Z,82.70
2017-11-25T05:12:27.708Z,82.30
2017-11-25T05:14:54.356Z,82.30
2017-11-25T05:17:20.927Z,82.10
2017-11-25T05:19:47.867Z,82.60
2017-11-25T05:22:14.552Z,82.70
2017-11-25T05:24:41.119Z,82.80
2017-11-25T05:27:07.751Z,82.70
2017-11-25T05:29:34.572Z,82.60
2017-11-25T05:32:01.532Z,82.70
2017-11-25T05:34:28.621Z,82.80
2017-11-25T05:36:55.211Z,82.80
2017-11-25T05:39:21.811Z,82.70
2017-11-25T05:41:48.397Z,82.50
2017-11-25T05:44:15.062Z,82.30
2017-11-25T05:46:41.619Z,82.20
2017-11-25T05:49:08.220Z,82.10
2017-11-25T05:51:34.918Z,81.60
2017-11-25T05:54:01.839Z,81.20
2017-11-25T05:56:28.424Z,81.20
2017-11-25T05:58:55.400Z,80.50
2017-11-25T06:01:22.330Z,80.20
2017-11-25T06:03:48.880Z,80.20
2017-11-25T06:06:15.495Z,79.80
2017-11-25T06:08:42.031Z,79.80
2017-11-25T06:11:08.798Z,79.50
2017-11-25T06:13:35.387Z,79.30
2017-11-25T06:16:01.932Z,79.00
2017-11-25T06:18:28.564Z,79.20
2017-11-25T06:20:55.167Z,79.20
2017-11-25T06:23:21.714Z,79.40
2017-11-25T06:25:48.330Z,79.60
2017-11-25T06:28:15.399Z,79.10
2017-11-25T06:30:42.323Z,79.10
2017-11-25T06:33:08.870Z,79.10
2017-11-25T06:35:35.499Z,78.80
2017-11-25T06:38:02.091Z,78.70
2017-11-25T06:40:28.994Z,79.30
2017-11-25T06:42:55.611Z,79.30
2017-11-25T06:45:22.159Z,79.10
2017-11-25T06:47:48.712Z,79.50
2017-11-25T06:50:15.355Z,79.90
2017-11-25T06:52:41.944Z,80.10
2017-11-25T06:55:08.503Z,79.70
2017-11-25T06:57:35.188Z,79.70
2017-11-25T07:00:02.142Z,80.10
2017-11-25T07:02:29.067Z,80.40
2017-11-25T07:04:55.671Z,80.40
2017-11-25T07:07:22.239Z,80.60
2017-11-25T07:09:48.830Z,80.60
2017-11-25T07:12:15.443Z,80.90
2017-11-25T07:14:42.267Z,81.30
2017-11-25T07:17:08.897Z,81.40
2017-11-25T07:19:35.547Z,81.40
2017-11-25T07:22:02.523Z,81.20
2017-11-25T07:24:29.078Z,81.20
2017-11-25T07:26:55.781Z,81.40
2017-11-25T07:29:22.347Z,81.50
2017-11-25T07:31:48.900Z,81.60
2017-11-25T07:34:15.886Z,81.50
2017-11-25T07:36:42.464Z,81.50
2017-11-25T07:39:09.015Z,81.80
2017-11-25T07:41:35.687Z,81.70
2017-11-25T07:44:02.651Z,81.80
2017-11-25T07:46:29.634Z,81.60
2017-11-25T07:48:56.271Z,81.60
2017-11-25T07:51:22.821Z,81.00
2017-11-25T07:53:49.432Z,80.60
2017-11-25T07:56:16.079Z,80.20
2017-11-25T07:58:42.635Z,79.90
2017-11-25T08:01:09.296Z,80.00
2017-11-25T08:03:36.319Z,79.80
2017-11-25T08:06:02.888Z,79.80
2017-11-25T08:08:29.535Z,79.80
2017-11-25T08:10:56.135Z,79.90
2017-11-25T08:13:22.684Z,79.80
2017-11-25T08:15:49.241Z,79.90
2017-11-25T08:18:15.856Z,80.00
2017-11-25T08:20:42.411Z,79.60
2017-11-25T08:23:09.083Z,79.50
2017-11-25T08:25:35.749Z,79.90
2017-11-25T08:28:02.311Z,81.10
2017-11-25T08:30:28.865Z,81.10
2017-11-25T08:32:55.510Z,81.30
2017-11-25T08:35:22.135Z,81.20
2017-11-25T08:37:48.678Z,80.80
2017-11-25T08:40:15.300Z,81.00
2017-11-25T08:42:41.826Z,81.20
2017-11-25T08:45:08.760Z,80.60
2017-11-25T08:47:35.378Z,80.50
2017-11-25T08:50:01.925Z,80.10
2017-11-25T08:52:28.484Z,80.20
2017-11-25T08:54:55.214Z,80.60
2017-11-25T08:57:21.775Z,80.60
2017-11-25T08:59:48.374Z,80.40
2017-11-25T09:02:14.988Z,80.70
2017-11-25T09:04:41.537Z,80.70
2017-11-25T09:07:08.083Z,80.10
2017-11-25T09:09:34.735Z,79.60
2017-11-25T09:12:01.295Z,79.10
2017-11-25T09:14:27.850Z,78.50
2017-11-25T09:16:54.828Z,79.40
2017-11-25T09:19:21.796Z,79.90
2017-11-25T09:21:48.364Z,79.90
2017-11-25T09:24:15.061Z,79.50
2017-11-25T09:26:41.630Z,79.30
2017-11-25T09:29:08.601Z,78.90
2017-11-25T09:31:35.228Z,78.90
2017-11-25T09:34:02.173Z,78.70
2017-11-25T09:36:28.783Z,78.70
2017-11-25T09:38:55.430Z,78.50
2017-11-25T09:41:22.012Z,78.20
2017-11-25T09:43:48.857Z,78.10
2017-11-25T09:46:15.570Z,77.90
2017-11-25T09:48:42.135Z,77.90
2017-11-25T09:51:08.726Z,78.10
2017-11-25T09:53:35.726Z,78.20
2017-11-25T09:56:02.283Z,78.20
2017-11-25T09:58:28.835Z,78.30
2017-11-25T10:00:55.487Z,78.40
2017-11-25T10:03:22.063Z,79.50
2017-11-25T10:05:48.986Z,78.20
2017-11-25T10:08:15.595Z,78.20
2017-11-25T10:10:42.199Z,77.90
2017-11-25T10:13:08.801Z,78.20
2017-11-25T10:15:35.428Z,78.30
2017-11-25T10:18:02.359Z,80.40
2017-11-25T10:20:28.967Z,80.40
2017-11-25T10:22:55.588Z,81.10
2017-11-25T10:25:22.507Z,82.50
2017-11-25T10:27:49.069Z,82.40
2017-11-25T10:30:15.683Z,83.10
2017-11-25T10:32:42.334Z,83.40
2017-11-25T10:35:09.003Z,83.70
2017-11-25T10:37:35.743Z,84.00
2017-11-25T10:40:02.471Z,84.60
2017-11-25T10:42:29.088Z,85.00
2017-11-25T10:44:56.179Z,86.10
2017-11-25T10:47:22.815Z,86.10
2017-11-25T10:49:49.409Z,86.30
2017-11-25T10:52:16.065Z,86.60
2017-11-25T10:54:42.751Z,86.60
2017-11-25T10:57:09.679Z,87.50
2017-11-25T10:59:36.279Z,87.50
2017-11-25T11:02:02.962Z,87.60
2017-11-25T11:04:29.594Z,87.50
2017-11-25T11:06:56.207Z,87.60
2017-11-25T11:09:22.749Z,87.50
2017-11-25T11:11:49.675Z,86.20
2017-11-25T11:14:16.339Z,86.20
2017-11-25T11:16:43.294Z,85.10
2017-11-25T11:19:10.393Z,85.10
2017-11-25T11:21:37.015Z,85.10
2017-11-25T11:24:03.939Z,85.30
2017-11-25T11:26:30.487Z,85.20
2017-11-25T11:28:57.227Z,85.00
2017-11-25T11:31:23.789Z,85.20
2017-11-25T11:33:50.331Z,84.80
2017-11-25T11:36:16.974Z,85.30
2017-11-25T11:38:43.567Z,85.90
2017-11-25T11:41:10.154Z,86.60
2017-11-25T11:43:36.769Z,87.70
2017-11-25T11:46:03.323Z,88.40
2017-11-25T11:48:29.876Z,89.50
2017-11-25T11:50:56.543Z,89.70
2017-11-25T11:53:23.105Z,90.00
2017-11-25T11:55:49.655Z,89.90
2017-11-25T11:58:16.266Z,90.40
2017-11-25T12:00:42.924Z,90.70
2017-11-25T12:03:09.530Z,90.80
2017-11-25T12:05:36.711Z,90.20
2017-11-25T12:08:03.346Z,90.20
2017-11-25T12:10:30.608Z,89.10
2017-11-25T12:12:57.634Z,89.40
2017-11-25T12:15:24.184Z,89.30
2017-11-25T12:17:50.772Z,89.80
2017-11-25T12:20:18.428Z,89.00
2017-11-25T12:22:45.376Z,90.60
2017-11-25T12:25:12.107Z,90.60
2017-11-25T12:27:38.729Z,91.00
2017-11-25T12:30:05.298Z,91.40
2017-11-25T12:32:32.592Z,91.70
2017-11-25T12:34:59.217Z,92.10
2017-11-25T12:37:25.790Z,92.30
2017-11-25T12:39:52.327Z,91.60
2017-11-25T12:42:19.011Z,91.60
2017-11-25T12:44:45.969Z,91.80
2017-11-25T12:47:12.506Z,91.80
2017-11-25T12:49:39.530Z,92.30
2017-11-25T12:52:06.167Z,92.30
2017-11-25T12:54:32.968Z,92.10
2017-11-25T12:56:59.939Z,92.60
2017-11-25T12:59:26.480Z,92.60
2017-11-25T13:01:53.050Z,92.50
2017-11-25T13:04:19.748Z,93.00
2017-11-25T13:06:46.718Z,93.10
2017-11-25T13:09:13.622Z,93.40
2017-11-25T13:11:40.435Z,93.40
2017-11-25T13:14:07.372Z,93.50
2017-11-25T13:16:33.931Z,93.50
2017-11-25T13:19:00.912Z,92.10
2017-11-25T13:21:27.457Z,92.10
2017-11-25T13:23:54.016Z,91.70
2017-11-25T13:26:20.623Z,91.50
2017-11-25T13:28:47.160Z,92.30
2017-11-25T13:31:13.724Z,92.70
2017-11-25T13:33:40.716Z,92.30
2017-11-25T13:36:07.255Z,92.30
2017-11-25T13:38:33.852Z,92.90
2017-11-25T13:41:00.501Z,93.00
2017-11-25T13:43:27.116Z,92.50
2017-11-25T13:45:53.760Z,92.80
2017-11-25T13:48:20.423Z,92.80
2017-11-25T13:50:47.072Z,92.50
2017-11-25T13:53:13.695Z,91.70
2017-11-25T13:55:40.291Z,91.50
2017-11-25T13:58:06.908Z,91.50
2017-11-25T14:00:33.519Z,90.80
2017-11-25T14:03:00.515Z,91.30
2017-11-25T14:05:27.067Z,91.30
2017-11-25T14:07:53.723Z,91.30
2017-11-25T14:10:20.447Z,91.70
2017-11-25T14:12:47.083Z,91.80
2017-11-25T14:15:13.751Z,91.90
2017-11-25T14:17:47.628Z,92.10
2017-11-25T14:20:14.232Z,92.10
2017-11-25T14:22:40.816Z,91.70
2017-11-25T14:25:07.483Z,91.80
2017-11-25T14:27:34.420Z,91.70
2017-11-25T14:30:01.011Z,91.70
2017-11-25T14:35:21.676Z,91.30
2017-11-25T14:37:48.524Z,91.60
2017-11-25T14:40:15.103Z,91.80
2017-11-25T14:42:41.934Z,92.60
2017-11-25T14:45:08.551Z,92.00
2017-11-25T14:47:35.103Z,92.10
2017-11-25T14:50:01.688Z,92.50
2017-11-25T14:52:28.421Z,92.90
2017-11-25T14:54:54.978Z,93.00
2017-11-25T14:57:21.581Z,92.90
2017-11-25T14:59:48.652Z,93.20
2017-11-25T15:02:15.295Z,93.10
2017-11-25T15:04:42.315Z,93.10
2017-11-25T15:07:08.958Z,93.10
2017-11-25T15:09:35.604Z,92.60
2017-11-25T15:12:02.155Z,92.70
2017-11-25T15:14:28.756Z,92.50
2017-11-25T15:16:55.367Z,92.60
2017-11-25T15:19:21.972Z,92.50
2017-11-25T15:21:48.748Z,92.60
2017-11-25T15:24:15.323Z,92.60
2017-11-25T15:26:41.923Z,92.90
2017-11-25T15:29:08.571Z,92.90
2017-11-25T15:31:35.182Z,92.80
2017-11-25T15:34:02.280Z,92.60
2017-11-25T15:36:29.027Z,92.60
2017-11-25T15:38:55.679Z,92.50
2017-11-25T15:41:22.356Z,92.30
2017-11-25T15:43:49.008Z,92.30
2017-11-25T15:46:15.604Z,92.10
2017-11-25T15:48:42.209Z,92.20
2017-11-25T15:51:08.954Z,92.00
2017-11-25T15:53:35.552Z,91.80
2017-11-25T15:56:02.215Z,92.00
2017-11-25T15:58:28.871Z,92.00
2017-11-25T16:00:55.755Z,91.80
2017-11-25T16:03:22.406Z,91.10
2017-11-25T16:05:49.158Z,91.10
2017-11-25T16:08:15.711Z,91.10
2017-11-25T16:10:42.287Z,91.50
2017-11-25T16:13:09.514Z,91.30
2017-11-25T16:15:36.114Z,91.30
2017-11-25T16:18:02.690Z,91.00
2017-11-25T16:20:29.351Z,90.90
2017-11-25T16:22:55.997Z,91.00
2017-11-25T16:25:22.567Z,90.50
2017-11-25T16:27:49.224Z,90.60
2017-11-25T16:30:15.839Z,90.50
2017-11-25T16:32:42.398Z,90.50
2017-11-25T16:35:09.094Z,90.20
2017-11-25T16:37:36.163Z,90.00
2017-11-25T16:40:02.819Z,90.00
2017-11-25T16:42:29.520Z,90.10
2017-11-25T16:44:56.107Z,90.40
2017-11-25T16:47:23.056Z,90.50
2017-11-25T16:49:50.053Z,90.40
2017-11-25T16:52:16.595Z,90.50
2017-11-25T16:54:43.151Z,90.70
2017-11-25T16:57:09.776Z,91.00
2017-11-25T16:59:36.328Z,90.90
2017-11-25T17:02:02.915Z,91.00
2017-11-25T17:04:29.529Z,90.70
2017-11-25T17:06:56.087Z,90.60
2017-11-25T17:09:22.655Z,90.40
2017-11-25T17:11:49.242Z,90.20
2017-11-25T17:14:16.156Z,90.20
2017-11-25T17:16:42.716Z,90.20
2017-11-25T17:19:09.310Z,90.30
2017-11-25T17:21:35.864Z,90.50
2017-11-25T17:24:02.411Z,90.40
2017-11-25T17:26:29.012Z,90.30
2017-11-25T17:28:55.568Z,90.40
2017-11-25T17:31:22.487Z,90.40
2017-11-25T17:33:49.120Z,90.40
2017-11-25T17:36:15.664Z,90.20
2017-11-25T17:38:42.224Z,90.30
2017-11-25T17:41:08.880Z,90.10
2017-11-25T17:43:35.439Z,90.10
2017-11-25T17:46:02.003Z,90.20
2017-11-25T17:48:28.616Z,90.30
2017-11-25T17:50:55.174Z,90.20
2017-11-25T17:53:22.190Z,90.10
2017-11-25T17:55:51.725Z,90.10
2017-11-25T17:58:21.278Z,89.90
2017-11-25T18:00:52.508Z,89.90
2017-11-25T18:03:19.085Z,89.80
2017-11-25T18:05:47.233Z,89.60
2017-11-25T18:08:18.823Z,89.70
2017-11-25T18:10:50.664Z,89.60
2017-11-25T18:13:22.908Z,89.80
2017-11-25T18:15:53.130Z,89.90
2017-11-25T18:18:21.915Z,90.10
2017-11-25T18:20:52.580Z,90.00
2017-11-25T18:23:21.728Z,90.00
2017-11-25T18:25:50.998Z,89.90
2017-11-25T18:28:22.241Z,89.70
2017-11-25T18:30:52.904Z,89.30
2017-11-25T18:33:22.879Z,88.90
2017-11-25T18:35:51.497Z,88.80
2017-11-25T18:38:22.252Z,88.90
2017-11-25T18:40:53.523Z,88.90
2017-11-25T18:43:26.311Z,89.00
2017-11-25T18:45:53.883Z,89.00
2017-11-25T18:48:22.674Z,89.00
2017-11-25T18:50:53.352Z,88.60
2017-11-25T18:53:20.386Z,88.60
2017-11-25T18:55:46.939Z,88.70
2017-11-25T18:58:13.629Z,88.40
2017-11-25T19:00:40.187Z,88.70
2017-11-25T19:03:06.740Z,88.70
2017-11-25T19:05:33.352Z,88.60
2017-11-25T19:07:59.936Z,88.60
2017-11-25T19:10:26.497Z,88.40
2017-11-25T19:12:53.116Z,88.30
2017-11-25T19:15:20.455Z,88.30
2017-11-25T19:17:47.003Z,88.10
2017-11-25T19:20:13.747Z,88.00
2017-11-25T19:22:41.328Z,87.90
2017-11-25T19:25:08.675Z,87.80
2017-11-25T19:27:35.288Z,87.80
2017-11-25T19:30:02.021Z,87.80
2017-11-25T19:32:28.652Z,87.90
2017-11-25T19:34:55.668Z,88.00
2017-11-25T19:37:23.124Z,88.00
2017-11-25T19:39:49.704Z,87.40
2017-11-25T19:42:16.312Z,87.90
2017-11-25T19:44:42.951Z,87.70
2017-11-25T19:47:09.553Z,87.00
2017-11-25T19:49:36.224Z,87.70
2017-11-25T19:52:03.215Z,88.50
2017-11-25T19:54:29.816Z,88.50
2017-11-25T19:56:56.443Z,88.70
2017-11-25T19:59:22.991Z,89.20
2017-11-25T20:01:49.535Z,88.20
2017-11-25T20:04:16.167Z,88.00
2017-11-25T20:06:42.759Z,88.10
2017-11-25T20:09:09.332Z,87.80
2017-11-25T20:11:36.350Z,89.90
2017-11-25T20:14:02.931Z,89.90
2017-11-25T20:16:29.885Z,90.60
2017-11-25T20:18:56.612Z,90.60
2017-11-25T20:21:23.170Z,90.50
2017-11-25T20:23:49.722Z,90.70
2017-11-25T20:26:16.323Z,91.00
2017-11-25T20:28:42.880Z,91.00
2017-11-25T20:31:09.452Z,90.00
2017-11-25T20:33:36.082Z,90.00
2017-11-25T20:36:02.651Z,91.10
2017-11-25T20:38:30.190Z,91.60
2017-11-25T20:40:57.673Z,92.60
2017-11-25T20:43:25.051Z,92.80
2017-11-25T20:45:51.605Z,93.10
2017-11-25T20:48:18.300Z,93.10
2017-11-25T20:50:45.358Z,92.90
2017-11-25T20:53:12.447Z,93.10
2017-11-25T20:55:39.051Z,93.20
2017-11-25T20:58:07.072Z,93.60
2017-11-25T21:00:34.108Z,93.60
2017-11-25T21:03:01.616Z,93.30
2017-11-25T21:05:28.195Z,93.70
2017-11-25T21:07:54.775Z,93.50
2017-11-25T21:10:21.490Z,93.40
2017-11-25T21:12:48.034Z,93.50
2017-11-25T21:15:15.988Z,93.60
2017-11-25T21:17:42.646Z,93.80
2017-11-25T21:22:40.775Z,93.70
2017-11-25T21:25:09.345Z,93.70
2017-11-25T21:27:35.994Z,93.80
2017-11-25T21:30:02.569Z,93.80
2017-11-25T21:32:29.204Z,93.60
2017-11-25T21:34:55.808Z,94.00
2017-11-25T21:37:22.361Z,93.80
2017-11-25T21:39:49.827Z,93.40
2017-11-25T21:42:16.471Z,93.90
2017-11-25T21:44:43.039Z,93.70
2017-11-25T21:47:09.692Z,94.00
2017-11-25T21:49:37.205Z,93.80
2017-11-25T21:52:04.124Z,93.90
2017-11-25T21:54:30.749Z,94.00
2017-11-25T21:56:57.311Z,93.60
2017-11-25T21:59:23.875Z,92.80
2017-11-25T22:01:50.480Z,92.80
2017-11-25T22:04:17.039Z,92.40
2017-11-25T22:06:43.575Z,91.50
2017-11-25T22:09:10.187Z,91.50
2017-11-25T22:11:36.744Z,91.20
2017-11-25T22:14:03.684Z,90.00
2017-11-25T22:16:30.291Z,90.00
2017-11-25T22:18:57.560Z,89.70
2017-11-25T22:21:24.098Z,90.10
2017-11-25T22:23:50.704Z,90.00
2017-11-25T22:26:17.636Z,89.60
2017-11-25T22:28:44.217Z,89.60
2017-11-25T22:31:11.220Z,89.50
2017-11-25T22:33:37.842Z,89.50
2017-11-25T22:36:04.464Z,90.00
2017-11-25T22:38:31.455Z,90.10
2017-11-25T22:40:58.054Z,90.10
2017-11-25T22:43:24.678Z,89.50
2017-11-25T22:45:51.292Z,89.30
2017-11-25T22:48:17.967Z,89.90
2017-11-25T22:50:44.511Z,89.40
2017-11-25T22:53:11.103Z,89.30
2017-11-25T22:55:37.640Z,89.70
2017-11-25T22:58:04.197Z,90.10
2017-11-25T23:00:31.188Z,89.90
2017-11-25T23:02:57.735Z,89.90
2017-11-25T23:05:24.348Z,89.60
2017-11-25T23:07:50.953Z,89.50
2017-11-25T23:10:17.552Z,89.50
2017-11-25T23:12:44.492Z,89.50
2017-11-25T23:15:11.095Z,89.50
2017-11-25T23:17:37.645Z,89.70
2017-11-25T23:20:04.193Z,90.20
2017-11-25T23:22:30.799Z,90.30
2017-11-25T23:24:57.735Z,91.30
2017-11-25T23:27:24.293Z,91.30
2017-11-25T23:29:50.900Z,90.90
2017-11-25T23:32:17.451Z,90.50
2017-11-25T23:34:43.995Z,89.10
2017-11-25T23:37:10.687Z,88.80
2017-11-25T23:39:37.243Z,89.10
2017-11-25T23:42:04.154Z,89.70
2017-11-25T23:44:30.844Z,89.80
2017-11-25T23:46:57.766Z,90.10
2017-11-25T23:49:24.353Z,90.10
2017-11-25T23:51:50.956Z,90.00
2017-11-25T23:54:17.520Z,89.50
2017-11-25T23:56:44.165Z,89.40
2017-11-25T23:59:10.775Z,89.40
